Aliso Viejo, California
Current Conditions -  °F | °C
As of 7:53 AM on Monday 26 Jan 2015 (Local Time) from KSNA Reporting Station
Broken Clouds Broken Clouds  
Wind Chill: 21°   Ceiling: 12000
Heat Index: 21°   Visibility: 10mi
Dew Point:   Wind: 12mph
Humidity: 38%   Direction: 200°SSW
Pressure: 29.98"   Gusts: NA
Location:  33.57°N, 117.72°W
Report Text: KSNA 261553Z 20010KT 10SM BKN120 BKN330 21/06 A2998 RMK AO2 SLP151 T02060056
Loading
Personal Weather Stations






























Interactive Weather Map New forecast layout! Learn more

10-Day Weather Forecast

Advertisements
Track Severe Weather on mobile